createdAt,value
2023-01-11T00:03:33.842Z,17.994846
2023-01-11T00:08:35.871Z,18.19018
2023-01-11T00:13:37.690Z,18.098748
2023-01-11T00:18:39.460Z,17.711228
2023-01-11T00:23:41.269Z,17.525502
2023-01-11T00:28:43.024Z,17.827384
2023-01-11T00:33:44.787Z,17.987966
2023-01-11T00:38:46.883Z,17.735328
2023-01-11T00:43:48.755Z,17.948058
2023-01-11T00:48:50.508Z,17.34542
2023-01-11T00:53:52.336Z,17.677332
2023-01-11T00:58:54.215Z,17.59126
2023-01-11T01:03:56.021Z,17.147956
2023-01-11T01:08:57.785Z,16.752254
2023-01-11T01:13:59.280Z,17.090326
2023-01-11T01:19:01.148Z,16.55232
2023-01-11T01:24:02.718Z,16.818894
2023-01-11T01:29:04.237Z,17.031448
2023-01-11T01:34:05.728Z,16.993412
2023-01-11T01:39:07.422Z,16.903188
2023-01-11T01:44:08.965Z,16.645
2023-01-11T01:49:10.441Z,16.933028
2023-01-11T01:54:12.014Z,17.053512
2023-01-11T01:59:13.600Z,17.706642
2023-01-11T02:04:15.191Z,17.177266
2023-01-11T02:09:17.401Z,16.923054
2023-01-11T02:14:19.233Z,16.5554
2023-01-11T02:19:20.983Z,16.83857
2023-01-11T02:24:22.689Z,16.917748
2023-01-11T02:29:24.389Z,17.42928
2023-01-11T02:34:26.099Z,17.247624
2023-01-11T02:39:28.153Z,17.661876
2023-01-11T02:44:29.950Z,17.08407
2023-01-11T02:49:31.421Z,17.784138
2023-01-11T02:54:33.024Z,17.819446
2023-01-11T02:59:34.755Z,17.14858
2023-01-11T03:04:36.410Z,17.661876
2023-01-11T03:09:38.617Z,16.904776
2023-01-11T03:14:40.152Z,17.499896
2023-01-11T03:19:41.673Z,18.100146
2023-01-11T03:24:43.353Z,17.4224
2023-01-11T03:29:44.863Z,17.83003
2023-01-11T03:34:46.625Z,17.75898
2023-01-11T03:39:48.972Z,17.490194
2023-01-11T03:44:50.535Z,17.698948
2023-01-11T03:49:52.070Z,17.282674
2023-01-11T03:54:53.639Z,18.24245
2023-01-11T03:59:55.130Z,17.12501
2023-01-11T04:04:56.779Z,16.721166
2023-01-11T04:09:58.766Z,17.095266
2023-01-11T04:15:00.331Z,17.940554
2023-01-11T04:20:01.868Z,17.56275
2023-01-11T04:25:03.603Z,18.97176
2023-01-11T04:30:05.231Z,19.282218
2023-01-11T04:35:06.709Z,19.574398
2023-01-11T04:40:09.269Z,19.748808
2023-01-11T04:45:10.891Z,19.405172
2023-01-11T04:50:12.800Z,19.291934
2023-01-11T04:55:14.408Z,19.877814
2023-01-11T05:00:15.941Z,20.489354
2023-01-11T05:05:17.677Z,21.194158
2023-01-11T05:10:21.138Z,21.515228
2023-01-11T05:15:22.719Z,21.869652
2023-01-11T05:20:24.475Z,22.258258
2023-01-11T05:25:26.403Z,22.198864
2023-01-11T05:30:28.173Z,23.742378
2023-01-11T05:35:29.973Z,23.17426
2023-01-11T05:40:32.014Z,23.73193
2023-01-11T05:45:33.832Z,25.285866
2023-01-11T05:50:35.709Z,23.983076
2023-01-11T05:55:37.370Z,25.494838
2023-01-11T06:00:38.841Z,25.55061
2023-01-11T06:05:40.609Z,26.301186
2023-01-11T06:10:42.655Z,26.34625
2023-01-11T06:15:44.544Z,27.34952
2023-01-11T06:20:46.345Z,27.633138
2023-01-11T06:25:48.164Z,27.491214
2023-01-11T06:30:49.970Z,27.84454
2023-01-11T06:35:51.585Z,28.144686
2023-01-11T06:40:53.552Z,28.702398
2023-01-11T06:45:55.407Z,29.190592
2023-01-11T06:50:57.307Z,28.730854
2023-01-11T06:55:58.903Z,28.385914
2023-01-11T07:01:00.536Z,29.028368
2023-01-11T07:06:02.199Z,30.038762
2023-01-11T07:11:04.052Z,30.158596
2023-01-11T07:16:05.595Z,30.481268
2023-01-11T07:21:07.371Z,30.038966
2023-01-11T07:26:09.101Z,30.208478
2023-01-11T07:31:11.014Z,31.347528
2023-01-11T07:36:12.722Z,31.358574
2023-01-11T07:41:14.612Z,31.509088
2023-01-11T07:46:16.428Z,31.158816
2023-01-11T07:51:18.130Z,32.132164
2023-01-11T07:56:19.807Z,32.169468
2023-01-11T08:01:21.559Z,31.774158
2023-01-11T08:06:23.331Z,32.470728
2023-01-11T08:11:25.297Z,32.532308
2023-01-11T08:16:26.799Z,32.77002
2023-01-11T08:21:28.418Z,32.841084
2023-01-11T08:26:30.215Z,32.67665
2023-01-11T08:31:31.945Z,33.437458
2023-01-11T08:36:33.442Z,33.075268
2023-01-11T08:41:35.384Z,31.86399
2023-01-11T08:46:37.218Z,33.911772
2023-01-11T08:51:39.004Z,32.769126
2023-01-11T08:56:40.823Z,33.404566
2023-01-11T09:01:42.621Z,32.98985
2023-01-11T09:06:44.387Z,33.448056
2023-01-11T09:11:46.705Z,35.034348
2023-01-11T09:16:48.488Z,33.184736
2023-01-11T09:21:50.269Z,35.55415
2023-01-11T09:26:51.866Z,35.81637
2023-01-11T09:31:53.463Z,34.970558
2023-01-11T09:36:55.240Z,33.89854
2023-01-11T09:41:57.208Z,34.406182
2023-01-11T09:46:58.929Z,34.04288
2023-01-11T09:52:00.451Z,34.189434
2023-01-11T09:57:02.178Z,35.25662
2023-01-11T10:02:03.867Z,33.753294
2023-01-11T10:07:05.370Z,35.221746
2023-01-11T10:19:30.875Z,34.086142
2023-01-11T10:24:36.770Z,33.815982
2023-01-11T10:29:38.877Z,34.721146
2023-01-11T10:34:40.551Z,33.082338
2023-01-11T10:39:42.288Z,34.322538
2023-01-11T10:44:44.349Z,32.35708
2023-01-11T10:49:45.913Z,34.289428
2023-01-11T10:54:48.145Z,33.189376
2023-01-11T10:59:50.619Z,33.80495
2023-01-11T11:04:52.097Z,33.830772
2023-01-11T11:09:53.605Z,32.992724
2023-01-11T11:14:55.463Z,33.062906
2023-01-11T11:19:56.980Z,32.99317
2023-01-11T11:24:58.479Z,32.759434
2023-01-11T11:29:59.988Z,32.88635
2023-01-11T11:35:01.454Z,33.895446
2023-01-11T11:40:03.229Z,32.711522
2023-01-11T11:45:04.975Z,33.959006
2023-01-11T11:50:06.752Z,34.748734
2023-01-11T11:55:08.941Z,33.141258
2023-01-11T12:00:10.822Z,33.475872
2023-01-11T12:05:12.604Z,33.861236
2023-01-11T12:10:14.423Z,33.960336
2023-01-11T12:15:16.893Z,33.41451
2023-01-11T12:20:18.648Z,33.406558
2023-01-11T12:25:21.213Z,33.354912
2023-01-11T12:30:23.227Z,33.890586
2023-01-11T12:35:24.750Z,34.552748
2023-01-11T12:40:26.297Z,33.83365
2023-01-11T12:45:28.451Z,34.70945
2023-01-11T12:50:30.238Z,33.994098
2023-01-11T12:55:32.158Z,34.174872
2023-01-11T13:00:34.031Z,31.855616
2023-01-11T13:05:35.765Z,31.049144
2023-01-11T13:10:37.738Z,32.411362
2023-01-11T13:15:40.309Z,31.901304
2023-01-11T13:20:59.420Z,31.457008
2023-01-11T13:26:02.970Z,31.964648
2023-01-11T13:31:04.741Z,33.493298
2023-01-11T13:36:15.069Z,32.65172
2023-01-11T13:41:23.724Z,33.505224
2023-01-11T13:46:25.865Z,33.491098
2023-01-11T13:51:27.487Z,31.935502
2023-01-11T13:56:29.202Z,32.35905
2023-01-11T14:01:31.303Z,32.777742
2023-01-11T14:06:32.815Z,33.253168
2023-01-11T14:11:34.329Z,33.347626
2023-01-11T14:16:36.910Z,32.719486
2023-01-11T14:21:38.512Z,32.550204
2023-01-11T14:26:40.151Z,31.911672
2023-01-11T14:31:41.897Z,30.861762
2023-01-11T14:36:44.254Z,30.133642
2023-01-11T14:41:45.870Z,31.48967
2023-01-11T14:46:47.763Z,31.558548
2023-01-11T14:51:49.391Z,31.132558
2023-01-11T14:56:51.238Z,31.487918
2023-01-11T15:01:53.224Z,31.810578
2023-01-11T15:06:55.081Z,31.309138
2023-01-11T15:11:56.574Z,30.61611
2023-01-11T15:16:58.470Z,31.764902
2023-01-11T15:22:00.144Z,30.722048
2023-01-11T15:27:01.935Z,31.168544
2023-01-11T15:32:03.610Z,31.255486
2023-01-11T15:37:05.480Z,30.653208
2023-01-11T15:42:07.178Z,31.023104
2023-01-11T15:47:08.947Z,30.962612
2023-01-11T15:52:10.412Z,30.07935
2023-01-11T15:57:12.147Z,30.169628
2023-01-11T16:02:13.719Z,30.145352
2023-01-11T16:07:15.251Z,29.580992
2023-01-11T16:12:16.730Z,29.244654
2023-01-11T16:17:18.760Z,29.435348
2023-01-11T16:22:20.273Z,29.07513
2023-01-11T16:27:21.876Z,29.15173
2023-01-11T16:32:23.392Z,27.652938
2023-01-11T16:37:25.191Z,27.989762
2023-01-11T16:42:26.971Z,27.68716
2023-01-11T16:47:28.904Z,28.219726
2023-01-11T16:52:30.694Z,27.52564
2023-01-11T16:57:32.482Z,27.44174
2023-01-11T17:02:34.478Z,27.076256
2023-01-11T17:07:36.275Z,27.351936
2023-01-11T17:12:37.741Z,26.762866
2023-01-11T17:17:40.018Z,26.875452
2023-01-11T17:22:41.873Z,26.461864
2023-01-11T17:27:43.659Z,26.391478
2023-01-11T17:32:45.432Z,26.451944
2023-01-11T17:37:47.217Z,25.90152
2023-01-11T17:42:49.009Z,25.937316
2023-01-11T17:47:51.028Z,25.147226
2023-01-11T17:52:55.026Z,24.784402
2023-01-11T17:57:57.289Z,25.047232
2023-01-11T18:02:59.279Z,24.879498
2023-01-11T18:08:01.093Z,24.773166
2023-01-11T18:13:02.781Z,24.228252
2023-01-11T18:18:04.877Z,24.39068
2023-01-11T18:23:07.375Z,24.229622
2023-01-11T18:28:09.595Z,24.001422
2023-01-11T18:33:11.799Z,23.93698
2023-01-11T18:38:14.309Z,23.65537
2023-01-11T18:43:16.911Z,23.474406
2023-01-11T18:48:20.152Z,23.09614
2023-01-11T18:53:23.070Z,23.34597
2023-01-11T18:58:26.128Z,23.04254
2023-01-11T19:03:29.346Z,22.819442
2023-01-11T19:08:32.623Z,22.958476
2023-01-11T19:13:35.745Z,23.146022
2023-01-11T19:18:39.994Z,22.904578
2023-01-11T19:23:43.244Z,22.669322
2023-01-11T19:28:46.389Z,22.96731
2023-01-11T19:33:49.262Z,23.0165
2023-01-11T19:38:52.554Z,22.790946
2023-01-11T19:43:55.351Z,22.679526
2023-01-11T19:48:58.441Z,22.047034
2023-01-11T19:54:01.296Z,22.231092
2023-01-11T19:59:03.921Z,22.549326
2023-01-11T20:04:05.832Z,22.224022
2023-01-11T20:09:07.418Z,21.800746
2023-01-11T20:14:11.391Z,21.625128
2023-01-11T20:19:14.322Z,21.864794
2023-01-11T20:24:16.192Z,21.343288
2023-01-11T20:29:18.099Z,21.68957
2023-01-11T20:34:19.896Z,21.169828
2023-01-11T20:39:21.463Z,20.988606
2023-01-11T20:44:23.281Z,20.825812
2023-01-11T20:49:25.017Z,20.718558
2023-01-11T20:54:26.589Z,21.07499
2023-01-11T20:59:28.127Z,20.698692
2023-01-11T21:04:29.617Z,20.784764
2023-01-11T21:09:31.162Z,20.793584
2023-01-11T21:14:32.754Z,20.853616
2023-01-11T21:19:35.310Z,20.541814
2023-01-11T21:24:36.844Z,20.028056
2023-01-11T21:29:38.491Z,20.340116
2023-01-11T21:34:40.280Z,19.762988
2023-01-11T21:39:42.037Z,20.167348
2023-01-11T21:44:43.814Z,19.803656
2023-01-11T21:49:45.878Z,19.464688
2023-01-11T21:54:47.621Z,19.9628
2023-01-11T21:59:50.447Z,19.152018
2023-01-11T22:04:52.348Z,19.70928
2023-01-11T22:10:04.466Z,19.81116
2023-01-11T22:15:06.280Z,19.940478
2023-01-11T22:20:08.043Z,20.115526
2023-01-11T22:25:09.857Z,19.33537
2023-01-11T22:30:11.421Z,18.974406
2023-01-11T22:35:12.967Z,18.728566
2023-01-11T22:40:14.735Z,19.234806
2023-01-11T22:45:16.222Z,18.952776
2023-01-11T22:50:18.282Z,19.373582
2023-01-11T22:55:20.067Z,18.920304
2023-01-11T23:00:21.676Z,19.393448
2023-01-11T23:05:23.408Z,19.166578
2023-01-11T23:10:25.175Z,19.10101
2023-01-11T23:15:27.024Z,19.04433
2023-01-11T23:20:28.990Z,18.546028
2023-01-11T23:25:30.736Z,18.737834
2023-01-11T23:30:32.472Z,18.451136
2023-01-11T23:35:34.149Z,18.989414
2023-01-11T23:40:35.957Z,18.300446
2023-01-11T23:45:37.821Z,18.553342
2023-01-11T23:50:40.025Z,18.453158
2023-01-11T23:55:41.809Z,18.113756
